Time;durP1;ratioP1;P1;durP2;ratioP2;P2;SDS_P1;SDS_P2;PMS_P1;PMS_P2;Temp;Humidity;BMP_temperature;BMP_pressure;BME280_temperature;BME280_humidity;BME280_pressure;Samples;Min_cycle;Max_cycle;Signal;HPM_P1;HPM_P2
2022/08/19 00:01:42;;;;;;;24.00;20.55;;;;;;;23.04;52.10;101190.53;5093640;28;20039;-69
2022/08/19 00:04:12;;;;;;;27.48;21.00;;;;;;;23.00;52.20;101189.16;5094085;28;20048;-69
2022/08/19 00:06:40;;;;;;;21.90;19.55;;;;;;;22.97;52.48;101186.78;5093687;27;20055;-70
2022/08/19 00:09:09;;;;;;;21.27;19.00;;;;;;;22.95;52.28;101175.16;5093558;28;20037;-69
2022/08/19 00:11:37;;;;;;;23.85;20.67;;;;;;;22.94;52.36;101186.28;5093648;28;20089;-69
2022/08/19 00:14:09;;;;;;;23.65;20.52;;;;;;;22.91;52.61;101186.66;5093941;28;20482;-69
2022/08/19 00:16:38;;;;;;;22.67;20.38;;;;;;;22.88;52.69;101192.50;5093317;27;20055;-69
2022/08/19 00:19:05;;;;;;;21.83;19.52;;;;;;;22.84;52.69;101192.00;5093319;28;20493;-69
2022/08/19 00:21:32;;;;;;;22.15;19.27;;;;;;;22.84;52.58;101194.75;5093134;28;20047;-69
2022/08/19 00:24:03;;;;;;;22.17;19.58;;;;;;;22.82;52.73;101192.19;5093669;28;20048;-69
2022/08/19 00:26:29;;;;;;;22.35;19.95;;;;;;;22.80;52.87;101193.41;5093745;28;20043;-69
2022/08/19 00:28:56;;;;;;;20.83;18.73;;;;;;;22.76;52.74;101190.13;5092431;28;20135;-70
2022/08/19 00:31:23;;;;;;;22.15;18.83;;;;;;;22.73;52.48;101195.13;5093144;28;20111;-69
2022/08/19 00:33:50;;;;;;;22.40;19.13;;;;;;;22.73;52.62;101195.13;5093379;28;20084;-70
2022/08/19 00:36:17;;;;;;;21.55;19.17;;;;;;;22.72;52.72;101197.00;5093275;28;20097;-70
2022/08/19 00:38:44;;;;;;;22.40;20.10;;;;;;;22.70;52.69;101190.00;5092913;28;20485;-69
2022/08/19 00:41:17;;;;;;;21.42;19.02;;;;;;;22.67;52.71;101196.69;5091972;28;20036;-70
2022/08/19 00:44:00;;;;;;;24.95;22.20;;;;;;;22.60;52.51;101195.69;5073134;28;20049;-70
2022/08/19 00:46:27;;;;;;;25.60;22.85;;;;;;;22.54;52.41;101190.94;5073072;28;20057;-69
2022/08/19 00:48:57;;;;;;;24.77;22.05;;;;;;;22.48;52.35;101191.66;5088850;28;20055;-70
2022/08/19 00:51:27;;;;;;;24.88;21.50;;;;;;;22.40;52.41;101187.06;5093053;28;20032;-70
2022/08/19 00:53:58;;;;;;;21.02;18.83;;;;;;;22.35;52.38;101186.75;5092303;28;20036;-70
2022/08/19 00:56:26;;;;;;;17.35;14.98;;;;;;;22.29;52.72;101186.56;5092731;28;20063;-70
2022/08/19 00:58:56;;;;;;;16.85;14.60;;;;;;;22.24;52.67;101192.56;5093182;28;20040;-70
2022/08/19 01:01:23;;;;;;;15.90;13.95;;;;;;;22.19;52.73;101195.84;5091267;28;20048;-71
2022/08/19 01:03:53;;;;;;;14.70;12.88;;;;;;;22.16;52.88;101198.06;5092753;28;20070;-70
2022/08/19 01:06:25;;;;;;;19.67;16.43;;;;;;;22.11;53.05;101187.66;5093216;28;20074;-70
2022/08/19 01:08:53;;;;;;;20.73;17.73;;;;;;;22.06;52.76;101190.06;5092386;28;20048;-70
2022/08/19 01:11:20;;;;;;;18.48;16.58;;;;;;;22.01;53.36;101197.91;5092049;28;20036;-70
2022/08/19 01:13:53;;;;;;;17.80;14.75;;;;;;;21.94;53.34;101204.25;5092842;28;20409;-70
2022/08/19 01:16:22;;;;;;;15.95;14.35;;;;;;;21.89;53.30;101208.38;5092761;28;20040;-70
2022/08/19 01:18:49;;;;;;;16.92;14.88;;;;;;;21.87;53.58;101215.03;5092818;28;20056;-69
2022/08/19 01:21:26;;;;;;;14.25;12.80;;;;;;;21.84;53.61;101207.19;5092226;27;20486;-70
2022/08/19 01:23:54;;;;;;;14.52;12.77;;;;;;;21.80;53.53;101194.88;5092549;28;20048;-70
2022/08/19 01:26:24;;;;;;;15.38;13.77;;;;;;;21.77;53.57;101193.34;5092430;28;20046;-70
2022/08/19 01:28:54;;;;;;;13.82;12.45;;;;;;;21.76;53.86;101197.13;5092266;28;20089;-70
2022/08/19 01:31:31;;;;;;;15.15;11.88;;;;;;;21.76;53.84;101188.91;5092582;28;20474;-69
2022/08/19 01:34:00;;;;;;;15.27;13.05;;;;;;;21.75;53.67;101198.16;5085344;28;20554;-70
2022/08/19 01:36:37;;;;;;;20.02;14.80;;;;;;;21.74;53.76;101201.91;5092280;28;20038;-70
2022/08/19 01:39:07;;;;;;;15.88;14.18;;;;;;;21.73;54.06;101208.41;5089404;28;20036;-69
2022/08/19 01:42:12;;;;;;;22.20;17.55;;;;;;;21.71;53.88;101193.19;5088898;28;20093;-70
2022/08/19 01:44:40;;;;;;;22.88;18.75;;;;;;;21.66;53.98;101204.66;5091963;28;20066;-69
2022/08/19 01:47:09;;;;;;;20.30;18.10;;;;;;;21.63;53.67;101204.13;5091983;28;20040;-71
2022/08/19 01:49:36;;;;;;;16.77;15.15;;;;;;;21.58;53.68;101201.06;5090331;28;20526;-70
2022/08/19 01:52:04;;;;;;;16.45;14.68;;;;;;;21.54;53.95;101203.25;5090495;28;20047;-70
2022/08/19 01:54:32;;;;;;;17.73;15.05;;;;;;;21.50;53.83;101204.63;5071918;28;20068;-69
2022/08/19 01:57:10;;;;;;;17.90;14.65;;;;;;;21.46;53.81;101209.59;5074985;28;20063;-69
2022/08/19 01:59:37;;;;;;;18.15;15.50;;;;;;;21.44;54.13;101211.63;5092080;28;20055;-69
2022/08/19 02:02:07;;;;;;;15.95;14.35;;;;;;;21.43;54.14;101218.13;5091625;28;20401;-70
2022/08/19 02:04:37;;;;;;;24.73;15.52;;;;;;;21.42;54.42;101223.75;5091740;28;20042;-70
2022/08/19 02:07:05;;;;;;;28.38;16.42;;;;;;;21.41;54.33;101216.59;5091183;28;20044;-69
2022/08/19 02:09:32;;;;;;;17.90;15.98;;;;;;;21.37;54.16;101220.69;5090443;28;20048;-70
2022/08/19 02:11:59;;;;;;;18.27;16.38;;;;;;;21.35;54.42;101222.72;5091311;28;20032;-70
2022/08/19 02:14:26;;;;;;;18.45;16.08;;;;;;;21.31;54.43;101229.56;5091384;28;20043;-70
2022/08/19 02:16:53;;;;;;;26.63;16.33;;;;;;;21.31;54.54;101226.81;5091636;28;20044;-69
2022/08/19 02:19:19;;;;;;;27.05;16.98;;;;;;;21.24;54.70;101226.66;5091418;28;20107;-70
2022/08/19 02:21:46;;;;;;;32.97;27.98;;;;;;;21.20;54.84;101227.97;5091492;28;20486;-70
2022/08/19 02:24:13;;;;;;;27.27;24.40;;;;;;;21.16;54.87;101215.69;5091412;28;20131;-70
2022/08/19 02:26:40;;;;;;;27.48;24.20;;;;;;;21.12;54.90;101220.63;5089863;28;20044;-70
2022/08/19 02:29:07;;;;;;;24.45;21.77;;;;;;;21.12;54.74;101220.63;5089699;27;20470;-70
2022/08/19 02:31:34;;;;;;;18.50;16.55;;;;;;;21.11;54.28;101216.19;5091194;28;20398;-70
2022/08/19 02:34:02;;;;;;;19.67;17.02;;;;;;;21.10;54.82;101224.56;5089910;28;20040;-70
2022/08/19 02:36:30;;;;;;;19.05;17.00;;;;;;;21.08;54.83;101221.97;5088392;28;20402;-69
2022/08/19 02:38:56;;;;;;;24.60;18.40;;;;;;;21.07;54.70;101225.75;5091217;28;20055;-69
2022/08/19 02:41:28;;;;;;;22.25;17.95;;;;;;;21.05;54.77;101224.19;5091202;28;20036;-70
2022/08/19 02:44:00;;;;;;;22.05;18.30;;;;;;;21.03;54.54;101224.38;5085120;28;20494;-69
2022/08/19 02:46:49;;;;;;;27.75;20.90;;;;;;;21.04;54.70;101227.94;5091460;28;20429;-70
2022/08/19 02:49:18;;;;;;;43.22;22.88;;;;;;;21.03;54.85;101231.72;5090996;28;20462;-70
2022/08/19 02:51:45;;;;;;;30.52;23.92;;;;;;;21.02;55.07;101230.00;5091114;28;20454;-69
2022/08/19 02:54:15;;;;;;;38.55;28.00;;;;;;;20.98;55.24;101234.94;5090759;28;20048;-70
2022/08/19 02:56:43;;;;;;;45.10;27.20;;;;;;;20.96;55.28;101230.66;5090850;28;20047;-70
2022/08/19 02:59:11;;;;;;;52.25;28.33;;;;;;;20.92;55.17;101231.00;5090418;27;20032;-70
2022/08/19 03:01:40;;;;;;;32.08;26.73;;;;;;;20.91;55.37;101228.44;5090683;28;20047;-70
2022/08/19 03:04:09;;;;;;;33.70;26.60;;;;;;;20.87;55.32;101222.47;5090904;27;20093;-72
2022/08/19 03:06:38;;;;;;;34.13;26.88;;;;;;;20.81;55.59;101225.00;5091138;28;20068;-70
2022/08/19 03:09:04;;;;;;;32.88;27.13;;;;;;;20.82;55.75;101223.97;5090746;28;20048;-70
2022/08/19 03:11:33;;;;;;;47.40;25.00;;;;;;;20.81;55.77;101228.59;5091015;28;20089;-70
2022/08/19 03:14:00;;;;;;;33.03;25.50;;;;;;;20.82;55.69;101234.91;5090401;28;20032;-73
2022/08/19 03:16:30;;;;;;;43.25;22.73;;;;;;;20.78;56.03;101230.75;5090777;28;20461;-70
2022/08/19 03:19:01;;;;;;;42.05;21.65;;;;;;;20.73;56.08;101231.25;5094777;28;20040;-69
2022/08/19 03:21:33;;;;;;;31.05;24.83;;;;;;;20.72;56.34;101234.16;5094864;28;20044;-70
2022/08/19 03:24:04;;;;;;;35.70;28.65;;;;;;;20.72;56.07;101237.72;5094696;28;20046;-70
2022/08/19 03:26:31;;;;;;;52.85;27.98;;;;;;;20.72;56.29;101239.59;5094951;28;20063;-70
2022/08/19 03:29:02;;;;;;;33.65;24.77;;;;;;;20.70;56.04;101237.03;5093100;28;20051;-69
2022/08/19 03:31:32;;;;;;;33.47;22.17;;;;;;;20.66;56.33;101240.28;5094149;28;20058;-70
2022/08/19 03:34:27;;;;;;;90.43;21.55;;;;;;;20.61;56.55;101238.88;5094139;28;20040;-70
2022/08/19 03:36:56;;;;;;;38.17;27.60;;;;;;;20.54;56.07;101243.28;5093843;28;20067;-69
2022/08/19 03:39:25;;;;;;;57.67;26.92;;;;;;;20.47;56.40;101234.06;5094331;28;20504;-69
2022/08/19 03:41:56;;;;;;;29.70;25.25;;;;;;;20.42;56.35;101243.75;5094406;28;20051;-70
2022/08/19 03:44:46;;;;;;;25.73;22.55;;;;;;;20.41;56.31;101234.72;5093404;28;20047;-69
2022/08/19 03:47:16;;;;;;;40.22;22.88;;;;;;;20.43;56.46;101237.28;5093900;27;20063;-70
2022/08/19 03:49:43;;;;;;;28.88;24.08;;;;;;;20.43;56.37;101232.69;5094782;28;20038;-69
2022/08/19 03:52:10;;;;;;;29.70;23.52;;;;;;;20.43;56.52;101237.28;5092605;28;20036;-70
2022/08/19 03:54:38;;;;;;;24.42;21.63;;;;;;;20.41;56.64;101234.72;5093934;28;20055;-69
2022/08/19 03:57:05;;;;;;;24.33;21.70;;;;;;;20.41;56.25;101231.97;5094299;28;20047;-69
2022/08/19 03:59:35;;;;;;;23.25;20.50;;;;;;;20.42;56.62;101236.41;5093908;28;20048;-69
2022/08/19 04:02:08;;;;;;;27.13;21.45;;;;;;;20.46;56.22;101235.06;5093910;28;20089;-69
2022/08/19 04:04:36;;;;;;;34.05;23.60;;;;;;;20.49;56.31;101239.34;5093954;28;20378;-70
2022/08/19 04:07:03;;;;;;;38.17;22.13;;;;;;;20.50;56.22;101243.78;5093862;28;20425;-69
2022/08/19 04:09:30;;;;;;;40.42;25.30;;;;;;;20.46;56.27;101240.53;5093917;28;20145;-69
2022/08/19 04:11:57;;;;;;;37.38;28.80;;;;;;;20.44;56.34;101239.84;5093781;28;20040;-70
2022/08/19 04:14:29;;;;;;;152.90;28.98;;;;;;;20.41;56.61;101237.44;5093356;28;20036;-70
2022/08/19 04:16:57;;;;;;;32.97;26.00;;;;;;;20.34;56.15;101232.78;5093479;28;20097;-70
2022/08/19 04:19:24;;;;;;;31.17;24.30;;;;;;;20.29;56.53;101228.66;5092494;28;20032;-70
2022/08/19 04:21:53;;;;;;;28.50;23.98;;;;;;;20.27;56.39;101230.69;5093504;28;20046;-69
2022/08/19 04:24:23;;;;;;;29.35;23.27;;;;;;;20.28;56.31;101232.41;5093524;28;20044;-69
2022/08/19 04:26:50;;;;;;;26.55;22.27;;;;;;;20.30;56.65;101233.09;5093501;27;20067;-69
2022/08/19 04:29:21;;;;;;;29.88;23.55;;;;;;;20.32;56.46;101227.47;5092214;28;20046;-70
2022/08/19 04:31:49;;;;;;;25.58;21.65;;;;;;;20.36;56.45;101220.69;5093493;28;20128;-69
2022/08/19 04:34:22;;;;;;;29.40;22.00;;;;;;;20.36;56.57;101215.22;5091540;28;20040;-70
2022/08/19 04:36:53;;;;;;;27.05;21.50;;;;;;;20.37;56.63;101219.66;5094022;28;20449;-69
2022/08/19 04:42:38;;;;;;;26.83;21.15;;;;;;;20.37;56.38;101224.25;5093108;28;20113;-70
2022/08/19 04:44:58;;;;;;;28.98;22.58;;;;;;;20.34;56.62;101216.41;5093337;28;20092;-69
2022/08/19 04:47:25;;;;;;;28.30;22.27;;;;;;;20.34;56.66;101214.53;5092880;28;20040;-67
2022/08/19 04:50:12;;;;;;;30.38;22.05;;;;;;;20.33;56.75;101214.69;5092967;28;20047;-70
2022/08/19 04:52:42;;;;;;;29.02;21.38;;;;;;;20.33;56.69;101210.09;5092882;28;20062;-70
2022/08/19 04:55:13;;;;;;;28.88;21.63;;;;;;;20.34;56.91;101216.41;5093278;27;20048;-69
2022/08/19 04:57:40;;;;;;;32.47;21.40;;;;;;;20.36;57.39;101217.94;5093201;28;20040;-70
2022/08/19 05:00:09;;;;;;;28.25;21.88;;;;;;;20.40;57.29;101221.22;5093005;28;20044;-70
2022/08/19 05:02:36;;;;;;;29.50;22.77;;;;;;;20.43;56.99;101220.91;5092426;28;20596;-69
2022/08/19 05:05:03;;;;;;;34.60;24.58;;;;;;;20.46;57.05;101226.03;5092993;28;20199;-69
2022/08/19 05:07:30;;;;;;;32.30;24.73;;;;;;;20.46;57.36;101226.03;5092981;28;20036;-69
2022/08/19 05:09:57;;;;;;;31.27;23.75;;;;;;;20.49;57.75;101236.63;5092801;28;20054;-69
2022/08/19 05:12:26;;;;;;;38.20;23.58;;;;;;;20.50;57.53;101235.59;5092151;28;20039;-69
2022/08/19 05:14:56;;;;;;;29.45;20.90;;;;;;;20.47;57.57;101235.94;5092944;28;20055;-69
2022/08/19 05:17:25;;;;;;;32.72;21.65;;;;;;;20.44;57.37;101245.31;5092844;28;20048;-69
2022/08/19 05:22:41;;;;;;;30.85;24.35;;;;;;;20.39;57.18;101247.66;5092018;28;20051;-69
2022/08/19 05:25:13;;;;;;;33.05;25.10;;;;;;;20.38;57.53;101248.66;5092538;28;20524;-69
2022/08/19 05:27:41;;;;;;;33.03;25.58;;;;;;;20.40;57.42;101245.78;5092839;28;20036;-69
2022/08/19 05:30:09;;;;;;;35.75;27.33;;;;;;;20.40;57.50;101249.38;5092530;28;20053;-69
2022/08/19 05:32:35;;;;;;;37.83;29.45;;;;;;;20.41;57.36;101253.81;5091988;28;20500;-69
2022/08/19 05:35:04;;;;;;;34.38;28.67;;;;;;;20.41;57.46;101261.13;5092574;28;20047;-69
2022/08/19 05:37:31;;;;;;;33.72;27.20;;;;;;;20.42;57.80;101265.56;5092245;28;20123;-69
2022/08/19 05:39:57;;;;;;;35.83;26.70;;;;;;;20.44;57.33;101266.28;5091745;28;20063;-70
2022/08/19 05:42:26;;;;;;;33.47;26.02;;;;;;;20.49;57.86;101262.03;5073868;28;20135;-70
2022/08/19 05:44:53;;;;;;;32.95;25.60;;;;;;;20.56;58.28;101264.97;5092375;28;20097;-70
2022/08/19 05:47:20;;;;;;;31.00;25.75;;;;;;;20.63;58.33;101260.56;5091091;28;20032;-70
2022/08/19 05:49:49;;;;;;;32.10;24.90;;;;;;;20.71;58.34;101266.06;5091561;28;20328;-69
2022/08/19 05:52:16;;;;;;;31.83;24.42;;;;;;;20.79;58.34;101262.50;5091818;28;20458;-69
2022/08/19 05:54:47;;;;;;;34.72;26.92;;;;;;;20.86;58.59;101269.03;5091707;28;20501;-68
2022/08/19 05:57:18;;;;;;;34.83;25.00;;;;;;;20.94;58.76;101272.66;5091594;28;20040;-69
2022/08/19 05:59:47;;;;;;;36.28;27.73;;;;;;;21.00;58.86;101256.63;5090353;28;20063;-69
2022/08/19 06:02:14;;;;;;;39.20;29.58;;;;;;;21.08;59.13;101264.81;5090295;28;20130;-69
2022/08/19 06:04:44;;;;;;;45.85;30.23;;;;;;;21.15;59.37;101253.06;5092030;28;20115;-69
2022/08/19 06:07:11;;;;;;;51.33;36.25;;;;;;;21.22;59.27;101256.88;5091616;28;20074;-70
2022/08/19 06:09:40;;;;;;;57.28;37.80;;;;;;;21.31;59.50;101256.88;5091535;28;20044;-70
2022/08/19 06:12:09;;;;;;;65.40;43.20;;;;;;;21.38;60.20;101266.97;5091526;28;20044;-69
2022/08/19 06:14:41;;;;;;;63.03;41.50;;;;;;;21.43;60.23;101264.56;5091817;28;20040;-68
2022/08/19 06:17:07;;;;;;;68.95;44.35;;;;;;;21.51;60.41;101266.47;5090835;28;20062;-69
2022/08/19 06:19:34;;;;;;;63.95;43.30;;;;;;;21.56;60.42;101267.69;5091234;28;20040;-68
2022/08/19 06:22:07;;;;;;;69.35;44.50;;;;;;;21.63;60.56;101264.28;5091289;28;20065;-68
2022/08/19 06:24:35;;;;;;;64.03;43.35;;;;;;;21.71;60.88;101273.31;5090515;28;20047;-69
2022/08/19 06:27:03;;;;;;;66.95;44.28;;;;;;;21.80;61.01;101271.44;5091558;28;20224;-67
2022/08/19 06:29:29;;;;;;;65.82;43.25;;;;;;;21.91;61.02;101270.25;5091101;28;20125;-68
2022/08/19 06:31:59;;;;;;;61.58;42.63;;;;;;;22.03;61.05;101272.47;5091256;28;20048;-71
2022/08/19 06:34:28;;;;;;;63.35;41.33;;;;;;;22.13;60.72;101273.13;5091855;28;20044;-71
2022/08/19 06:36:57;;;;;;;58.75;40.13;;;;;;;22.24;60.57;101271.94;5099073;28;20032;-70
2022/08/19 06:39:27;;;;;;;63.00;40.65;;;;;;;22.33;60.93;101279.13;5091538;28;20052;-71
2022/08/19 06:41:58;;;;;;;59.72;40.80;;;;;;;22.37;60.75;101276.88;5090576;28;20044;-70
2022/08/19 06:44:35;;;;;;;58.30;39.67;;;;;;;22.44;60.57;101269.69;5091454;28;20451;-71
2022/08/19 06:47:13;;;;;;;60.58;39.47;;;;;;;22.49;60.56;101275.47;5091345;27;20052;-71
2022/08/19 06:49:40;;;;;;;55.83;39.38;;;;;;;22.57;60.62;101271.84;5090556;28;20040;-71
2022/08/19 06:52:07;;;;;;;59.22;38.33;;;;;;;22.65;60.38;101274.56;5089744;28;20397;-70
2022/08/19 06:54:36;;;;;;;60.13;40.20;;;;;;;22.76;60.35;101268.69;5090980;28;20500;-71
2022/08/19 06:57:23;;;;;;;55.03;37.92;;;;;;;22.87;60.41;101265.59;5090705;28;20389;-71
2022/08/19 06:59:49;;;;;;;53.40;36.03;;;;;;;22.95;60.25;101268.28;5090784;28;20371;-69
2022/08/19 07:02:16;;;;;;;58.38;36.17;;;;;;;23.02;60.42;101263.78;5108476;28;20043;-68
2022/08/19 07:04:45;;;;;;;50.85;36.45;;;;;;;23.12;60.14;101269.94;5111226;28;20592;-67
2022/08/19 07:07:14;;;;;;;52.85;36.33;;;;;;;23.21;60.07;101261.66;5106439;28;20490;-66
2022/08/19 07:09:47;;;;;;;51.25;35.72;;;;;;;23.30;60.14;101264.16;5111191;27;20035;-67
2022/08/19 07:12:24;;;;;;;47.83;34.28;;;;;;;23.41;59.92;101265.63;5107941;28;20046;-67
2022/08/19 07:14:52;;;;;;;47.90;35.00;;;;;;;23.51;59.94;101268.97;5110862;27;20044;-67
2022/08/19 07:17:20;;;;;;;46.25;33.05;;;;;;;23.60;59.56;101276.13;5110988;28;20138;-68
2022/08/19 07:19:47;;;;;;;48.58;32.95;;;;;;;23.69;59.32;101279.66;5110592;28;20040;-67
2022/08/19 07:22:14;;;;;;;46.03;32.55;;;;;;;23.80;59.44;101278.41;5110518;28;20046;-67
2022/08/19 07:24:43;;;;;;;46.75;32.00;;;;;;;23.89;59.23;101285.53;5111158;27;20060;-67
2022/08/19 07:27:18;;;;;;;47.97;33.80;;;;;;;24.00;59.39;101283.19;5110032;28;20040;-67
2022/08/19 07:29:52;;;;;;;56.55;34.25;;;;;;;24.12;59.42;101278.09;5111226;28;20394;-67
2022/08/19 07:32:27;;;;;;;48.80;32.30;;;;;;;24.23;58.92;101282.25;5108639;28;20509;-67
2022/08/19 07:34:55;;;;;;;48.85;33.28;;;;;;;24.32;58.62;101292.16;5111147;27;20150;-68
2022/08/19 07:37:26;;;;;;;47.85;32.72;;;;;;;24.34;58.62;101287.31;5103113;28;20044;-67
2022/08/19 07:39:58;;;;;;;43.60;31.65;;;;;;;24.37;58.35;101287.81;5090600;28;20072;-67
2022/08/19 07:42:25;;;;;;;43.50;32.10;;;;;;;24.47;58.54;101286.66;5089821;28;20080;-67
2022/08/19 07:44:52;;;;;;;42.33;31.48;;;;;;;24.60;58.32;101292.38;5090209;28;20040;-68
2022/08/19 07:47:19;;;;;;;47.83;32.92;;;;;;;24.76;58.09;101299.56;5090639;28;20040;-67
2022/08/19 07:50:09;;;;;;;50.55;33.97;;;;;;;24.89;57.81;101302.50;5090701;28;20040;-68
2022/08/19 07:52:39;;;;;;;45.72;32.33;;;;;;;24.98;57.75;101304.97;5089442;28;20050;-69
2022/08/19 07:55:08;;;;;;;44.97;32.35;;;;;;;25.12;57.42;101300.50;5090415;28;20510;-68
2022/08/19 07:57:55;;;;;;;44.45;30.98;;;;;;;25.25;57.16;101297.88;5097907;28;20034;-68
2022/08/19 08:00:21;;;;;;;44.97;31.17;;;;;;;25.31;56.88;101302.66;5093633;28;20036;-67
2022/08/19 08:02:50;;;;;;;45.13;32.58;;;;;;;25.36;56.66;101301.22;5091615;28;20400;-68
2022/08/19 08:10:58;;;;;;;43.50;30.25;;;;;;;25.56;56.09;101310.53;5093729;28;20185;-68
2022/08/19 08:13:34;;;;;;;42.53;31.30;;;;;;;25.61;56.01;101311.63;5093552;28;20043;-69
2022/08/19 08:16:02;;;;;;;44.88;31.02;;;;;;;25.71;55.83;101310.50;5093339;28;20044;-67
2022/08/19 08:18:29;;;;;;;40.13;29.42;;;;;;;25.78;55.76;101319.66;5093817;28;20036;-67
2022/08/19 08:20:57;;;;;;;39.15;29.02;;;;;;;25.85;55.56;101317.81;5093877;28;20101;-68
2022/08/19 08:23:26;;;;;;;35.95;27.23;;;;;;;25.93;55.37;101329.53;5093560;28;20525;-68
2022/08/19 08:25:57;;;;;;;40.88;27.70;;;;;;;26.06;55.21;101325.22;5093284;28;20032;-68
2022/08/19 08:28:27;;;;;;;36.33;26.30;;;;;;;26.14;54.89;101330.59;5093807;28;20048;-67
2022/08/19 08:30:57;;;;;;;30.40;23.90;;;;;;;26.27;54.80;101322.44;5093224;28;20047;-68
2022/08/19 08:33:29;;;;;;;30.95;23.33;;;;;;;26.45;54.70;101321.97;5093213;28;20055;-67
2022/08/19 08:36:10;;;;;;;34.08;24.98;;;;;;;26.58;54.07;101328.41;5092963;28;20073;-68
2022/08/19 08:38:38;;;;;;;32.78;23.42;;;;;;;26.72;53.72;101318.31;5093244;28;20107;-67
2022/08/19 08:41:27;;;;;;;31.15;21.90;;;;;;;26.92;53.74;101329.47;5093057;28;20043;-68
2022/08/19 08:43:56;;;;;;;30.65;22.73;;;;;;;27.09;53.16;101330.84;5093105;28;20097;-69
2022/08/19 08:46:42;;;;;;;26.73;20.33;;;;;;;27.13;53.03;101332.16;5092673;28;20084;-69
2022/08/19 08:49:33;;;;;;;26.98;20.48;;;;;;;27.13;52.36;101334.06;5091827;28;20054;-69
2022/08/19 08:52:07;;;;;;;26.95;19.60;;;;;;;27.26;52.36;101328.59;5092736;28;20050;-70
2022/08/19 08:54:39;;;;;;;23.92;19.38;;;;;;;27.44;52.23;101328.84;5093063;28;20409;-71
2022/08/19 08:57:15;;;;;;;25.58;19.35;;;;;;;27.64;51.83;101337.25;5093046;28;20058;-70
2022/08/19 08:59:48;;;;;;;22.08;17.52;;;;;;;27.79;51.40;101331.53;5092834;28;20097;-69
2022/08/19 09:02:15;;;;;;;23.52;18.60;;;;;;;27.97;51.21;101330.91;5092598;28;20040;-70
2022/08/19 09:04:42;;;;;;;24.88;17.83;;;;;;;28.13;50.69;101324.97;5092449;28;20024;-70
2022/08/19 09:07:26;;;;;;;26.67;18.77;;;;;;;28.32;50.30;101320.56;5092898;28;20085;-70
2022/08/19 09:10:43;;;;;;;19.50;15.98;;;;;;;28.48;49.74;101329.25;5092479;27;20063;-69
2022/08/19 09:13:31;;;;;;;23.92;17.58;;;;;;;28.71;49.24;101323.25;5090710;28;20044;-70
2022/08/19 09:16:09;;;;;;;22.85;17.40;;;;;;;28.79;48.75;101323.00;5091188;28;20048;-68
2022/08/19 09:18:41;;;;;;;22.10;18.60;;;;;;;28.79;48.31;101319.38;5092536;28;20040;-71
2022/08/19 09:21:08;;;;;;;24.88;19.15;;;;;;;28.71;47.81;101311.34;5092493;28;20120;-68
2022/08/19 09:23:40;;;;;;;24.00;19.33;;;;;;;28.68;47.78;101318.16;5092246;28;20040;-68
2022/08/19 09:26:14;;;;;;;23.92;20.08;;;;;;;28.71;47.88;101322.38;5092193;28;20036;-68
2022/08/19 09:28:44;;;;;;;25.08;21.75;;;;;;;28.73;47.68;101331.31;5092276;28;20090;-71
2022/08/19 09:31:18;;;;;;;27.20;22.75;;;;;;;28.75;47.43;101318.13;5091624;28;20040;-68
2022/08/19 09:33:50;;;;;;;27.92;24.13;;;;;;;28.78;47.32;101320.47;5092611;28;20044;-69
2022/08/19 09:36:22;;;;;;;30.75;24.10;;;;;;;28.77;47.23;101314.06;5091884;28;20066;-69
2022/08/19 09:39:01;;;;;;;29.15;23.90;;;;;;;28.80;47.23;101315.56;5092221;28;20109;-68
2022/08/19 09:41:28;;;;;;;29.75;24.95;;;;;;;28.86;47.22;101323.00;5091544;28;20093;-69
2022/08/19 09:43:59;;;;;;;32.50;25.80;;;;;;;28.94;47.18;101324.69;5090977;28;20068;-68
2022/08/19 09:46:30;;;;;;;32.08;25.30;;;;;;;29.01;47.08;101325.53;5091721;28;20032;-68
2022/08/19 09:48:58;;;;;;;33.80;27.58;;;;;;;29.05;46.78;101326.81;5091976;28;20032;-68
2022/08/19 09:51:32;;;;;;;38.95;26.98;;;;;;;29.06;46.78;101329.34;5091337;28;20089;-68
2022/08/19 09:54:03;;;;;;;32.30;26.27;;;;;;;29.10;46.75;101329.75;5091696;28;20075;-68
2022/08/19 09:56:31;;;;;;;30.73;25.73;;;;;;;29.14;46.62;101341.22;5091646;28;20074;-67
2022/08/19 09:59:00;;;;;;;35.22;26.20;;;;;;;29.14;46.41;101335.69;5092139;28;20145;-69
2022/08/19 10:01:29;;;;;;;31.75;24.17;;;;;;;29.17;46.25;101349.09;5091074;28;20052;-68
2022/08/19 10:03:59;;;;;;;31.90;25.83;;;;;;;29.18;45.88;101348.88;5091901;28;20455;-68
2022/08/19 10:06:32;;;;;;;32.10;25.42;;;;;;;29.17;45.48;101351.84;5091209;28;20452;-69
2022/08/19 10:09:14;;;;;;;30.52;26.02;;;;;;;29.07;45.55;101338.50;5091741;28;20040;-68
2022/08/19 10:11:42;;;;;;;31.42;23.25;;;;;;;29.02;45.43;101350.22;5090908;28;20119;-68
2022/08/19 10:14:23;;;;;;;23.42;20.92;;;;;;;29.10;45.75;101341.66;5091714;28;20097;-69
2022/08/19 10:16:51;;;;;;;30.58;19.92;;;;;;;29.20;45.71;101346.75;5090894;28;20414;-70
2022/08/19 10:19:21;;;;;;;22.98;18.58;;;;;;;29.27;45.71;101344.78;5091544;28;20036;-69
2022/08/19 10:21:52;;;;;;;21.73;17.13;;;;;;;29.32;45.27;101347.75;5090853;28;20390;-67
2022/08/19 10:24:24;;;;;;;24.27;17.80;;;;;;;29.37;44.93;101347.94;5091152;28;20402;-67
2022/08/19 10:26:51;;;;;;;22.90;18.35;;;;;;;29.36;44.60;101346.22;5090124;28;20040;-69
2022/08/19 10:29:24;;;;;;;26.42;19.40;;;;;;;29.32;44.47;101344.13;5091469;28;20048;-67
2022/08/19 10:32:05;;;;;;;24.13;18.55;;;;;;;29.34;44.53;101342.00;5090999;28;20367;-68
2022/08/19 10:34:39;;;;;;;22.45;18.95;;;;;;;29.44;44.39;101342.38;5090952;27;20391;-69
2022/08/19 10:37:13;;;;;;;22.83;18.00;;;;;;;29.47;43.95;101339.19;5087173;28;20130;-69
2022/08/19 10:39:47;;;;;;;20.13;17.65;;;;;;;29.43;43.72;101343.47;5090980;28;20046;-69
2022/08/19 10:42:15;;;;;;;25.15;18.30;;;;;;;29.45;43.94;101344.09;5091035;28;20036;-70
2022/08/19 10:44:42;;;;;;;29.73;18.85;;;;;;;29.42;43.73;101345.34;5091286;28;20497;-68
2022/08/19 10:47:09;;;;;;;24.17;19.33;;;;;;;29.34;43.69;101342.84;5091032;28;20255;-68
2022/08/19 10:52:44;;;;;;;24.67;18.35;;;;;;;29.35;43.59;101343.69;5090307;28;20036;-69
2022/08/19 10:58:16;;;;;;;24.50;19.60;;;;;;;29.49;43.68;101331.50;5089704;28;20406;-69
2022/08/19 11:00:51;;;;;;;22.33;18.95;;;;;;;29.51;43.40;101331.28;5090485;28;20044;-68
2022/08/19 11:03:18;;;;;;;22.98;18.40;;;;;;;29.52;43.38;101333.84;5091071;28;20478;-68
2022/08/19 11:05:45;;;;;;;28.92;20.45;;;;;;;29.46;43.05;101334.72;5090753;28;20056;-69
2022/08/19 11:08:11;;;;;;;26.48;19.05;;;;;;;29.41;43.00;101340.03;5091005;28;20044;-67
2022/08/19 11:10:56;;;;;;;26.00;20.02;;;;;;;29.40;42.62;101336.41;5088898;28;20383;-68
2022/08/19 11:13:24;;;;;;;24.00;19.33;;;;;;;29.39;42.97;101334.72;5090929;28;20047;-68
2022/08/19 11:16:03;;;;;;;23.77;18.83;;;;;;;29.44;42.62;101331.31;5089427;28;20032;-68
2022/08/19 11:18:38;;;;;;;25.52;18.73;;;;;;;29.54;42.81;101331.69;5090805;28;20036;-68
2022/08/19 11:21:10;;;;;;;28.35;20.88;;;;;;;29.59;42.45;101334.63;5088868;28;20144;-68
2022/08/19 11:23:37;;;;;;;23.55;18.30;;;;;;;29.60;42.59;101341.03;5090686;28;20043;-68
2022/08/19 11:26:04;;;;;;;22.15;17.48;;;;;;;29.60;42.66;101338.25;5089087;28;20054;-68
2022/08/19 11:28:31;;;;;;;24.13;18.77;;;;;;;29.60;42.37;101341.03;5090694;28;20036;-70
2022/08/19 11:30:58;;;;;;;27.05;20.58;;;;;;;29.54;42.46;101326.16;5090193;28;20051;-70
2022/08/19 11:33:30;;;;;;;23.98;19.00;;;;;;;29.46;42.67;101323.66;5090706;28;20375;-71
2022/08/19 11:35:59;;;;;;;25.83;21.00;;;;;;;29.43;42.31;101321.31;5090181;27;20048;-70
2022/08/19 11:38:26;;;;;;;26.88;19.83;;;;;;;29.45;42.54;101321.94;5093474;28;20349;-70
2022/08/19 11:40:58;;;;;;;31.67;21.85;;;;;;;29.49;42.92;101323.19;5093761;28;20044;-71
2022/08/19 11:43:29;;;;;;;29.02;19.02;;;;;;;29.59;42.73;101325.50;5094442;28;20046;-71